Time;durP1;ratioP1;P1;durP2;ratioP2;P2;SDS_P1;SDS_P2;PMS_P1;PMS_P2;Temp;Humidity;BMP_temperature;BMP_pressure;BME280_temperature;BME280_humidity;BME280_pressure;Samples;Min_cycle;Max_cycle;Signal;HPM_P1;HPM_P2
2022/05/06 00:02:05;;;;;;;;;;;10.70;63.80;;;;;;4876413;28;20048;-91
2022/05/06 00:05:14;;;;;;;;;;;;;;;;;;;;;
2022/05/06 00:08:26;;;;;;;;;;;;;;;;;;;;;
2022/05/06 00:11:35;;;;;;;4.43;3.67;;;10.60;63.60;;;;;;4912733;28;20388;-91
2022/05/06 00:14:46;;;;;;;;;;;;;;;;;;;;;
2022/05/06 00:17:30;;;;;;;;;;;;;;;;;;;;;
2022/05/06 00:20:19;;;;;;;6.20;4.90;;;10.60;64.60;;;;;;4892919;28;20661;-92
2022/05/06 00:23:00;;;;;;;7.82;4.70;;;10.50;65.60;;;;;;4942062;28;20497;-91
2022/05/06 00:25:59;;;;;;;8.18;5.13;;;10.40;66.10;;;;;;4938143;28;20034;-91
2022/05/06 00:28:36;;;;;;;8.55;4.72;;;10.30;64.90;;;;;;4933087;28;20030;-91
2022/05/06 00:31:34;;;;;;;;;;;;;;;;;;;;;
2022/05/06 00:34:44;;;;;;;8.88;6.13;;;10.10;64.80;;;;;;4969459;28;20112;-91
2022/05/06 00:37:27;;;;;;;8.45;5.38;;;9.30;67.30;;;;;;4954628;28;20583;-91
2022/05/06 00:40:04;;;;;;;10.98;6.15;;;10.30;67.80;;;;;;4937585;28;20088;-91
2022/05/06 00:46:31;;;;;;;7.47;4.18;;;9.30;67.70;;;;;;4920088;28;20102;-91
2022/05/06 00:53:06;;;;;;;5.32;4.15;;;10.80;68.30;;;;;;4926328;28;20022;-91
2022/05/06 00:55:55;;;;;;;5.60;4.03;;;9.10;68.00;;;;;;4911339;28;20114;-91
2022/05/06 00:59:15;;;;;;;8.30;5.07;;;9.30;67.50;;;;;;4890127;28;20039;-91
2022/05/06 01:02:29;;;;;;;;;;;;;;;;;;;;;
2022/05/06 01:04:56;;;;;;;6.72;4.70;;;9.80;66.80;;;;;;4929316;28;20421;-92
2022/05/06 01:07:57;;;;;;;8.88;4.65;;;9.80;69.90;;;;;;4896019;28;20036;-91
2022/05/06 01:10:42;;;;;;;;;;;;;;;;;;;;;
2022/05/06 01:13:55;;;;;;;12.10;6.45;;;9.40;66.80;;;;;;4918696;28;20062;-91
2022/05/06 01:16:48;;;;;;;;;;;;;;;;;;;;;
2022/05/06 01:19:46;;;;;;;11.45;7.10;;;9.50;70.80;;;;;;4920262;28;20611;-92
2022/05/06 01:22:26;;;;;;;12.70;7.55;;;9.60;71.30;;;;;;4912427;28;20046;-91
2022/05/06 01:25:34;;;;;;;8.82;6.75;;;9.50;69.70;;;;;;4907970;28;20031;-91
2022/05/06 01:28:13;;;;;;;10.23;6.70;;;9.00;69.00;;;;;;4942706;28;20039;-91
2022/05/06 01:34:13;;;;;;;;;;;;;;;;;;;;;
2022/05/06 01:36:44;;;;;;;15.67;6.60;;;8.90;68.90;;;;;;4959340;28;20639;-92
2022/05/06 01:39:42;;;;;;;9.25;6.72;;;8.70;72.60;;;;;;4978982;28;20266;-92
2022/05/06 01:42:13;;;;;;;9.48;6.72;;;8.40;67.40;;;;;;4994295;28;20030;-91
2022/05/06 01:44:52;;;;;;;12.90;7.28;;;9.70;70.70;;;;;;4934004;28;20035;-92
2022/05/06 01:47:57;;;;;;;;;;;;;;;;;;;;;
2022/05/06 01:50:23;;;;;;;11.82;6.95;;;9.30;75.00;;;;;;4983878;28;20591;-92
2022/05/06 01:53:09;;;;;;;8.48;6.22;;;8.70;77.70;;;;;;4955253;28;20492;-91
2022/05/06 01:56:07;;;;;;;10.73;6.87;;;8.30;74.00;;;;;;4928302;28;20034;-91
2022/05/06 01:59:09;;;;;;;;;;;;;;;;;;;;;
2022/05/06 02:02:11;;;;;;;12.43;6.55;;;8.20;74.50;;;;;;4964625;28;20113;-91
2022/05/06 02:07:34;;;;;;;14.32;9.68;;;8.00;86.10;;;;;;4930248;28;20037;-92
2022/05/06 02:10:05;;;;;;;8.73;6.03;;;8.00;82.10;;;;;;4972156;28;20026;-91
2022/05/06 02:13:03;;;;;;;8.23;5.78;;;8.60;78.60;;;;;;4943738;28;20037;-91
2022/05/06 02:16:20;;;;;;;6.45;4.78;;;9.00;76.50;;;;;;4934540;28;20039;-91
2022/05/06 02:19:07;;;;;;;7.43;5.20;;;9.30;79.70;;;;;;4934197;28;20048;-92
2022/05/06 02:21:44;;;;;;;6.53;5.68;;;8.30;76.80;;;;;;4951912;28;20043;-92
2022/05/06 02:24:25;;;;;;;10.02;5.93;;;8.90;75.80;;;;;;4938460;28;20030;-92
2022/05/06 02:33:23;;;;;;;;;;;;;;;;;;;;;
2022/05/06 02:36:25;;;;;;;;;;;;;;;;;;;;;
2022/05/06 02:38:56;;;;;;;6.90;5.07;;;8.50;77.90;;;;;;4980746;28;20406;-91
2022/05/06 02:44:15;;;;;;;9.98;5.22;;;8.20;82.40;;;;;;4947342;28;20096;-91
2022/05/06 02:46:41;;;;;;;9.80;6.28;;;9.00;81.20;;;;;;4961170;28;20044;-91
2022/05/06 02:49:24;;;;;;;10.07;6.60;;;7.80;80.10;;;;;;4972113;28;20037;-91
2022/05/06 02:51:50;;;;;;;9.50;6.57;;;8.10;87.80;;;;;;4974834;28;20570;-91
2022/05/06 02:54:29;;;;;;;11.55;6.80;;;7.60;86.00;;;;;;4959321;28;20064;-91
2022/05/06 02:59:59;;;;;;;9.18;6.85;;;8.40;81.50;;;;;;4959542;28;20113;-91
2022/05/06 03:02:25;;;;;;;9.93;7.72;;;7.60;85.70;;;;;;4959502;28;20497;-91
2022/05/06 03:04:58;;;;;;;13.25;7.85;;;7.50;93.60;;;;;;4951094;28;20134;-90
2022/05/06 03:07:23;;;;;;;10.93;7.63;;;7.50;98.00;;;;;;4973183;28;20030;-91
2022/05/06 03:09:49;;;;;;;10.50;7.97;;;7.40;99.70;;;;;;4945221;28;20030;-90
2022/05/06 03:12:26;;;;;;;9.93;6.93;;;7.40;94.90;;;;;;4948267;28;20030;-91
2022/05/06 03:15:07;;;;;;;10.35;6.82;;;7.50;92.30;;;;;;4959507;28;20080;-90
2022/05/06 03:20:31;;;;;;;13.27;7.82;;;7.40;91.90;;;;;;4975803;28;20029;-91
2022/05/06 03:23:08;;;;;;;8.85;6.55;;;7.40;95.30;;;;;;4963395;28;20046;-91
2022/05/06 03:25:44;;;;;;;13.10;7.00;;;7.50;91.80;;;;;;4920379;28;20038;-90
2022/05/06 03:28:10;;;;;;;6.53;5.63;;;7.50;91.40;;;;;;4930809;28;20496;-90
2022/05/06 03:31:10;;;;;;;8.40;5.32;;;6.70;91.60;;;;;;4936946;28;20041;-91
2022/05/06 03:33:39;;;;;;;9.27;6.68;;;7.30;92.60;;;;;;4966089;28;20046;-91
2022/05/06 03:36:12;;;;;;;7.18;5.43;;;7.50;92.80;;;;;;4975188;28;20030;-91
2022/05/06 03:38:40;;;;;;;7.18;5.63;;;7.30;92.30;;;;;;4982565;28;20502;-91
2022/05/06 03:41:11;;;;;;;7.63;5.13;;;7.30;93.30;;;;;;4962391;28;20122;-91
2022/05/06 03:43:37;;;;;;;10.73;6.72;;;7.60;93.40;;;;;;4958535;28;20030;-91
2022/05/06 03:46:13;;;;;;;5.22;4.70;;;7.20;93.10;;;;;;4974067;28;20109;-90
2022/05/06 03:48:47;;;;;;;7.63;5.68;;;7.30;92.80;;;;;;4977620;28;20093;-90
2022/05/06 03:51:22;;;;;;;11.95;7.50;;;6.40;93.00;;;;;;5007079;28;20117;-91
2022/05/06 03:53:55;;;;;;;10.75;7.18;;;7.80;95.40;;;;;;4945121;28;20042;-91
2022/05/06 03:56:24;;;;;;;11.75;7.38;;;7.70;95.40;;;;;;4969751;28;20113;-91
2022/05/06 03:58:51;;;;;;;8.25;6.18;;;7.20;96.10;;;;;;4931596;28;20113;-91
2022/05/06 04:01:19;;;;;;;7.95;5.93;;;6.60;93.80;;;;;;4961735;28;20479;-91
2022/05/06 04:04:02;;;;;;;7.35;5.35;;;7.10;95.10;;;;;;4949233;28;20118;-90
2022/05/06 04:06:36;;;;;;;9.32;7.00;;;8.20;94.90;;;;;;4970756;28;20402;-91
2022/05/06 04:09:08;;;;;;;8.57;5.82;;;6.70;94.20;;;;;;4953826;28;20038;-91
2022/05/06 04:11:42;;;;;;;9.40;6.53;;;7.10;95.70;;;;;;4955858;28;20118;-91
2022/05/06 04:14:10;;;;;;;7.60;5.35;;;7.40;96.40;;;;;;4959730;28;20164;-90
2022/05/06 04:16:36;;;;;;;10.18;7.57;;;7.30;97.00;;;;;;4976848;28;20045;-91
2022/05/06 04:19:07;;;;;;;12.48;6.88;;;7.60;96.50;;;;;;4968818;28;20034;-90
2022/05/06 04:24:26;;;;;;;12.25;8.30;;;6.60;96.50;;;;;;4963597;28;20092;-90
2022/05/06 04:26:52;;;;;;;13.48;9.55;;;6.10;99.90;;;;;;4954060;28;20536;-90
2022/05/06 04:29:31;;;;;;;13.57;8.90;;;7.60;99.90;;;;;;4945453;28;20034;-91
2022/05/06 04:32:00;;;;;;;11.77;8.73;;;6.50;99.20;;;;;;4952059;28;20533;-90
2022/05/06 04:34:48;;;;;;;10.00;6.85;;;6.90;98.60;;;;;;4962879;28;20044;-90
2022/05/06 04:37:25;;;;;;;8.57;5.85;;;7.00;97.00;;;;;;4994649;28;20046;-90
2022/05/06 04:40:11;;;;;;;8.15;6.35;;;7.10;96.60;;;;;;4984313;28;20026;-90
2022/05/06 04:42:54;;;;;;;13.18;7.10;;;7.20;97.40;;;;;;5003765;28;20038;-92
2022/05/06 04:45:20;;;;;;;9.68;6.18;;;7.30;97.60;;;;;;4984502;28;20080;-90
2022/05/06 04:47:48;;;;;;;9.18;5.15;;;7.40;97.30;;;;;;4959698;28;20102;-90
2022/05/06 04:50:16;;;;;;;7.72;5.82;;;7.60;99.50;;;;;;4948676;28;20049;-89
2022/05/06 04:52:43;;;;;;;11.23;7.03;;;7.80;99.50;;;;;;4992508;28;20034;-90
2022/05/06 04:55:29;;;;;;;8.45;6.32;;;7.80;98.90;;;;;;4975724;28;20035;-90
2022/05/06 04:58:02;;;;;;;9.48;7.50;;;8.00;99.50;;;;;;4984983;28;20038;-89
2022/05/06 05:00:55;;;;;;;11.50;8.13;;;8.50;99.60;;;;;;4977206;28;20038;-90
2022/05/06 05:03:59;;;;;;;10.68;6.68;;;7.90;97.70;;;;;;4992667;28;20027;-92
2022/05/06 05:06:26;;;;;;;11.93;6.65;;;8.20;98.60;;;;;;4967943;28;20050;-91
2022/05/06 05:09:33;;;;;;;10.07;7.10;;;8.20;98.50;;;;;;4916625;28;21117;-91
2022/05/06 05:12:08;;;;;;;9.10;5.85;;;8.30;98.70;;;;;;4953747;28;20423;-92
2022/05/06 05:14:49;;;;;;;;;;;;;;;;;;;;;
2022/05/06 05:17:53;;;;;;;12.02;7.32;;;8.70;97.30;;;;;;4889000;29;20043;-91
2022/05/06 05:21:09;;;;;;;11.25;8.45;;;8.80;97.60;;;;;;4904943;28;20028;-91
2022/05/06 05:28:13;;;;;;;16.00;8.10;;;9.20;98.40;;;;;;4944447;28;20075;-93
2022/05/06 05:30:38;;;;;;;17.83;8.88;;;9.40;99.30;;;;;;4953355;28;20111;-91
2022/05/06 05:33:15;;;;;;;10.90;7.20;;;9.60;97.50;;;;;;4959446;28;20091;-90
2022/05/06 05:35:41;;;;;;;11.90;8.15;;;9.80;97.20;;;;;;4940128;28;20477;-90
2022/05/06 05:38:06;;;;;;;14.70;9.40;;;10.00;97.00;;;;;;4940068;28;20035;-91
2022/05/06 05:40:51;;;;;;;16.95;8.73;;;10.70;96.90;;;;;;4961789;28;20038;-92
2022/05/06 05:50:14;;;;;;;12.95;8.90;;;11.00;96.00;;;;;;4955915;28;20076;-92
2022/05/06 05:55:37;;;;;;;11.82;8.68;;;11.00;94.50;;;;;;4995940;28;20342;-92
2022/05/06 05:58:05;;;;;;;13.73;8.85;;;11.40;94.40;;;;;;4983308;28;20022;-91
2022/05/06 06:00:48;;;;;;;16.55;8.80;;;11.40;93.50;;;;;;4983456;28;20019;-90
2022/05/06 06:03:17;;;;;;;15.45;8.55;;;11.70;92.10;;;;;;4983327;28;20057;-91
2022/05/06 06:19:24;;;;;;;17.65;8.30;;;12.80;93.90;;;;;;4912099;28;20117;-92
2022/05/06 06:22:06;;;;;;;9.20;4.97;;;13.00;93.10;;;;;;4936929;28;20034;-91
2022/05/06 06:24:35;;;;;;;12.13;7.35;;;12.80;88.60;;;;;;4946457;28;20026;-90
2022/05/06 06:27:43;;;;;;;16.67;7.68;;;13.20;91.10;;;;;;4956192;28;20030;-90
2022/05/06 06:37:12;;;;;;;10.10;6.82;;;13.90;91.20;;;;;;4954236;28;20034;-91
2022/05/06 06:39:54;;;;;;;15.82;8.65;;;13.90;90.00;;;;;;4969781;28;20033;-90
2022/05/06 06:46:15;;;;;;;13.80;8.00;;;14.50;86.40;;;;;;4973832;28;20076;-90
2022/05/06 06:49:12;;;;;;;;;;;;;;;;;;;;;
2022/05/06 06:52:13;;;;;;;14.68;8.80;;;15.20;92.10;;;;;;4940656;28;20664;-91
2022/05/06 07:15:22;;;;;;;16.27;9.38;;;16.80;90.90;;;;;;4860957;29;20040;-92
2022/05/06 07:24:53;;;;;;;13.40;8.18;;;17.80;92.00;;;;;;4916572;29;20079;-91
2022/05/06 07:44:50;;;;;;;;;;;;;;;;;;;;;
2022/05/06 07:47:27;;;;;;;;;;;;;;;;;;;;;
2022/05/06 07:50:43;;;;;;;;;;;;;;;;;;;;;
2022/05/06 07:56:55;;;;;;;13.63;9.85;;;20.00;84.30;;;;;;4838505;29;20193;-91
2022/05/06 08:09:39;;;;;;;16.50;11.48;;;21.20;79.10;;;;;;4868091;28;20089;-91
2022/05/06 08:12:57;;;;;;;;;;;;;;;;;;;;;
2022/05/06 08:15:30;;;;;;;11.05;8.07;;;21.50;78.00;;;;;;4940128;28;20170;-92
2022/05/06 08:18:47;;;;;;;12.27;8.95;;;21.60;73.80;;;;;;4951804;28;20110;-90
2022/05/06 08:21:20;;;;;;;16.80;11.18;;;21.40;76.90;;;;;;4970270;28;20022;-90
2022/05/06 08:24:04;;;;;;;16.75;11.70;;;21.80;76.20;;;;;;4954075;28;20061;-90
2022/05/06 08:26:30;;;;;;;12.85;8.82;;;22.10;76.00;;;;;;4962732;28;20588;-91
2022/05/06 08:29:08;;;;;;;;;;;;;;;;;;;;;
2022/05/06 08:31:50;;;;;;;;;;;;;;;;;;;;;
2022/05/06 08:53:48;;;;;;;18.15;10.43;;;23.80;66.30;;;;;;4881277;29;20123;-92
2022/05/06 09:00:20;;;;;;;;;;;;;;;;;;;;;
2022/05/06 09:06:27;;;;;;;14.32;10.10;;;23.90;66.30;;;;;;4846994;29;20033;-93
2022/05/06 09:13:12;;;;;;;17.77;12.18;;;24.50;65.30;;;;;;4839935;29;20508;-93
2022/05/06 09:18:45;;;;;;;11.55;8.60;;;24.90;61.80;;;;;;4874392;29;20081;-90
2022/05/06 09:25:20;;;;;;;12.48;8.95;;;25.00;62.00;;;;;;4843537;29;20048;-92
2022/05/06 09:35:11;;;;;;;15.32;10.00;;;24.70;59.30;;;;;;4912424;28;20043;-89
2022/05/06 09:41:12;;;;;;;;;;;;;;;;;;;;;
2022/05/06 09:44:18;;;;;;;;;;;;;;;;;;;;;
2022/05/06 09:47:15;;;;;;;23.00;12.63;;;25.30;58.00;;;;;;4879260;28;20401;-91
2022/05/06 09:56:33;;;;;;;12.40;7.57;;;25.30;56.70;;;;;;4906200;29;20032;-91
2022/05/06 10:00:21;;;;;;;;;;;;;;;;;;;;;
2022/05/06 10:19:39;;;;;;;23.15;14.43;;;26.60;55.50;;;;;;4957400;28;20049;-91
2022/05/06 10:22:16;;;;;;;18.70;11.32;;;26.60;54.30;;;;;;4972131;28;20052;-90
2022/05/06 10:35:15;;;;;;;;;;;;;;;;;;;;;
2022/05/06 10:37:47;;;;;;;17.27;11.00;;;26.50;53.30;;;;;;4982821;28;20040;-92
2022/05/06 10:40:49;;;;;;;16.95;12.77;;;26.40;53.00;;;;;;4943682;28;20054;-91
2022/05/06 10:43:39;;;;;;;16.95;12.70;;;26.50;53.80;;;;;;4949540;28;20108;-91
2022/05/06 10:46:35;;;;;;;19.90;12.85;;;26.70;52.30;;;;;;4925756;28;20098;-92
2022/05/06 10:49:34;;;;;;;16.27;12.73;;;26.70;52.20;;;;;;4950055;28;20062;-92
2022/05/06 10:55:14;;;;;;;26.27;15.13;;;27.30;51.00;;;;;;4956478;28;20035;-91
2022/05/06 10:58:23;;;;;;;14.63;9.35;;;27.80;49.80;;;;;;4935292;28;20498;-91
2022/05/06 11:00:51;;;;;;;19.00;13.68;;;28.00;50.40;;;;;;4960670;28;20041;-91
2022/05/06 11:04:02;;;;;;;;;;;;;;;;;;;;;
2022/05/06 11:06:28;;;;;;;22.83;14.77;;;28.20;51.00;;;;;;4946740;28;20386;-91
2022/05/06 11:08:56;;;;;;;25.13;18.15;;;28.40;50.80;;;;;;4957407;28;20105;-91
2022/05/06 11:11:42;;;;;;;35.03;21.42;;;28.40;50.90;;;;;;4941602;28;20058;-93
2022/05/06 11:14:23;;;;;;;46.13;24.30;;;28.50;50.70;;;;;;4953976;28;20250;-91
2022/05/06 11:20:14;;;;;;;26.75;21.15;;;28.50;51.10;;;;;;4977769;28;20060;-93
2022/05/06 11:25:51;;;;;;;23.73;19.30;;;28.50;51.20;;;;;;4960123;28;20037;-91
2022/05/06 11:38:40;;;;;;;27.17;23.23;;;28.60;50.80;;;;;;4967483;28;20043;-89
2022/05/06 11:41:17;;;;;;;21.00;15.45;;;29.00;48.90;;;;;;4960069;28;20034;-92
2022/05/06 11:43:56;;;;;;;18.25;13.85;;;28.90;49.30;;;;;;4927241;28;20389;-91
2022/05/06 11:49:29;;;;;;;18.27;13.45;;;29.20;49.40;;;;;;4934328;28;20067;-92
2022/05/06 11:52:16;;;;;;;17.65;15.52;;;29.40;50.30;;;;;;4957174;28;20027;-90
2022/05/06 11:55:00;;;;;;;22.13;13.80;;;29.50;48.90;;;;;;4957470;28;20031;-93
2022/05/06 11:58:01;;;;;;;18.80;13.13;;;29.70;48.50;;;;;;4926861;28;20450;-91
2022/05/06 12:00:34;;;;;;;15.85;11.63;;;29.80;48.50;;;;;;4949757;28;20031;-92
2022/05/06 12:03:46;;;;;;;13.75;11.38;;;29.90;49.10;;;;;;4892194;28;20410;-92
2022/05/06 12:06:26;;;;;;;16.98;11.00;;;30.20;48.90;;;;;;4957140;28;20091;-92
2022/05/06 12:09:07;;;;;;;13.82;12.43;;;30.80;47.90;;;;;;4951304;28;20516;-91
2022/05/06 12:11:51;;;;;;;15.93;12.50;;;30.80;49.00;;;;;;4978254;28;20031;-93
2022/05/06 12:18:28;;;;;;;;;;;;;;;;;;;;;
2022/05/06 12:28:05;;;;;;;18.60;13.98;;;31.60;43.80;;;;;;4959581;28;20130;-92
2022/05/06 12:30:45;;;;;;;;;;;;;;;;;;;;;
2022/05/06 12:36:16;;;;;;;27.52;20.30;;;31.30;43.70;;;;;;4966242;28;20449;-91
2022/05/06 12:39:01;;;;;;;26.45;23.50;;;31.00;42.80;;;;;;4939265;28;22162;-90
2022/05/06 12:41:53;;;;;;;24.38;19.90;;;30.90;41.50;;;;;;4962658;28;20046;-90
2022/05/06 12:44:32;;;;;;;;;;;;;;;;;;;;;
2022/05/06 12:51:07;;;;;;;;;;;;;;;;;;;;;
2022/05/06 12:53:34;;;;;;;20.25;17.52;;;30.30;43.30;;;;;;4967691;28;20266;-90
2022/05/06 12:58:57;;;;;;;20.30;16.40;;;30.40;42.30;;;;;;4913836;28;20109;-91
2022/05/06 13:01:27;;;;;;;17.98;16.13;;;30.30;41.60;;;;;;4942414;28;20088;-89
2022/05/06 13:03:58;;;;;;;18.05;16.23;;;30.20;41.40;;;;;;4935232;28;20042;-90
2022/05/06 13:06:37;;;;;;;;;;;;;;;;;;;;;
2022/05/06 13:09:05;;;;;;;14.02;12.45;;;30.00;41.60;;;;;;4959749;28;21767;-91
2022/05/06 13:11:31;;;;;;;16.67;14.95;;;29.90;42.10;;;;;;4954838;28;20030;-91
2022/05/06 13:14:08;;;;;;;14.65;12.48;;;29.80;42.20;;;;;;4955382;28;20122;-90
2022/05/06 13:16:36;;;;;;;19.77;17.85;;;29.80;42.50;;;;;;4940904;28;20045;-91
2022/05/06 13:19:03;;;;;;;15.98;13.88;;;29.70;42.60;;;;;;4966026;28;20133;-88
2022/05/06 13:21:43;;;;;;;19.45;16.52;;;29.60;42.90;;;;;;4931822;28;20037;-89
2022/05/06 13:24:22;;;;;;;18.00;15.70;;;29.50;42.60;;;;;;4950843;28;20042;-90
2022/05/06 13:27:03;;;;;;;;;;;;;;;;;;;;;
2022/05/06 13:30:09;;;;;;;17.98;12.88;;;29.40;43.60;;;;;;4924457;28;20647;-90
2022/05/06 13:32:35;;;;;;;10.02;9.10;;;29.40;44.40;;;;;;4966170;28;20037;-90
2022/05/06 13:35:18;;;;;;;14.32;12.15;;;29.40;44.70;;;;;;4960465;28;20041;-91
2022/05/06 13:37:49;;;;;;;14.13;12.73;;;29.60;44.80;;;;;;4958253;28;20041;-92
2022/05/06 13:40:14;;;;;;;11.00;9.95;;;29.70;44.10;;;;;;4932252;28;20066;-89
2022/05/06 13:43:02;;;;;;;15.32;12.82;;;30.00;44.40;;;;;;4964794;28;20470;-90
2022/05/06 13:45:31;;;;;;;12.20;11.10;;;30.20;44.50;;;;;;4951852;28;20497;-90
2022/05/06 13:48:32;;;;;;;15.57;13.75;;;30.50;44.50;;;;;;4957605;28;20030;-90
2022/05/06 13:51:00;;;;;;;19.42;16.77;;;30.80;43.10;;;;;;4960554;28;20029;-91
2022/05/06 13:53:40;;;;;;;21.30;18.05;;;31.00;42.70;;;;;;4961655;28;20065;-91
2022/05/06 13:59:11;;;;;;;18.77;14.95;;;31.40;42.20;;;;;;4959948;28;20045;-91
2022/05/06 14:01:40;;;;;;;10.90;9.80;;;31.60;42.10;;;;;;4963357;28;20030;-89
2022/05/06 14:04:08;;;;;;;12.60;10.85;;;31.70;42.80;;;;;;4986150;28;20037;-89
2022/05/06 14:06:50;;;;;;;17.13;12.38;;;31.90;42.00;;;;;;4951617;28;20043;-90
2022/05/06 14:09:34;;;;;;;12.93;11.55;;;32.20;41.70;;;;;;4973718;28;20061;-91
2022/05/06 14:12:03;;;;;;;15.80;13.65;;;32.20;40.90;;;;;;4972782;28;20041;-90
2022/05/06 14:14:29;;;;;;;14.55;12.60;;;32.20;40.20;;;;;;4965608;28;20038;-91
2022/05/06 14:16:54;;;;;;;12.63;10.65;;;32.20;40.80;;;;;;4975448;28;20488;-89
2022/05/06 14:19:22;;;;;;;11.02;9.95;;;32.20;40.50;;;;;;4972329;28;20054;-89
2022/05/06 14:22:17;;;;;;;16.17;13.23;;;32.20;41.10;;;;;;4979336;28;20028;-89
2022/05/06 14:24:59;;;;;;;13.98;10.32;;;32.30;40.50;;;;;;4940156;28;20050;-91
2022/05/06 14:27:43;;;;;;;10.60;9.50;;;32.40;40.10;;;;;;4931239;28;20030;-90
2022/05/06 14:30:33;;;;;;;;;;;;;;;;;;;;;
2022/05/06 14:36:46;;;;;;;10.98;9.88;;;31.90;40.50;;;;;;4967794;28;20093;-91
2022/05/06 14:39:40;;;;;;;12.60;10.60;;;31.60;39.80;;;;;;4876856;29;20106;-92
2022/05/06 14:46:04;;;;;;;19.42;12.45;;;31.20;40.00;;;;;;4907364;29;20105;-90
2022/05/06 14:48:52;;;;;;;9.85;8.85;;;30.90;39.80;;;;;;4888254;29;20032;-91
2022/05/06 14:51:53;;;;;;;16.23;11.70;;;30.60;40.30;;;;;;4941968;28;20043;-91
2022/05/06 14:55:06;;;;;;;;;;;;;;;;;;;;;
2022/05/06 14:57:35;;;;;;;13.55;9.68;;;30.10;40.00;;;;;;4976740;28;20063;-90
2022/05/06 15:00:32;;;;;;;18.80;12.85;;;29.90;40.70;;;;;;4970822;28;20053;-89
2022/05/06 15:03:49;;;;;;;15.02;11.40;;;29.70;40.50;;;;;;4947366;28;20109;-91
2022/05/06 15:06:33;;;;;;;12.25;9.88;;;29.40;40.20;;;;;;4934119;28;20137;-90
2022/05/06 15:09:29;;;;;;;11.02;9.43;;;29.30;40.50;;;;;;4952499;28;20080;-90
2022/05/06 15:11:58;;;;;;;15.80;11.43;;;29.10;41.00;;;;;;4949675;28;20026;-91
2022/05/06 15:14:31;;;;;;;17.92;13.32;;;29.00;41.10;;;;;;4934342;28;20514;-91
2022/05/06 15:17:49;;;;;;;;;;;;;;;;;;;;;
2022/05/06 15:20:21;;;;;;;17.33;12.07;;;28.90;41.60;;;;;;4956884;28;20382;-90
2022/05/06 15:22:47;;;;;;;13.45;10.90;;;28.70;41.40;;;;;;4932192;28;20265;-90
2022/05/06 15:25:54;;;;;;;;;;;;;;;;;;;;;
2022/05/06 15:28:20;;;;;;;10.20;8.98;;;28.40;41.20;;;;;;4964898;28;20393;-91
2022/05/06 15:30:48;;;;;;;14.45;11.07;;;28.40;41.80;;;;;;4950276;28;20118;-90
2022/05/06 15:33:19;;;;;;;12.98;8.70;;;28.50;41.30;;;;;;4965396;28;20504;-90
2022/05/06 15:35:45;;;;;;;15.88;11.60;;;28.50;41.50;;;;;;4955247;28;20053;-89
2022/05/06 15:38:13;;;;;;;15.10;10.73;;;28.70;40.50;;;;;;4956072;28;20135;-90
2022/05/06 15:40:45;;;;;;;14.20;9.25;;;28.60;41.30;;;;;;4928781;28;20042;-90
2022/05/06 15:43:12;;;;;;;11.63;10.25;;;28.70;41.80;;;;;;4925783;28;20080;-90
2022/05/06 15:45:48;;;;;;;12.13;9.80;;;28.60;40.70;;;;;;4947996;28;20059;-91
2022/05/06 15:48:14;;;;;;;18.70;10.98;;;28.40;41.30;;;;;;4969519;28;20026;-91
2022/05/06 15:50:45;;;;;;;12.40;11.00;;;28.30;40.50;;;;;;4968801;28;20125;-90
2022/05/06 15:53:12;;;;;;;10.80;9.57;;;28.10;41.00;;;;;;4967989;28;20038;-90
2022/05/06 15:55:40;;;;;;;14.77;9.02;;;27.90;41.40;;;;;;4959932;28;20061;-92
2022/05/06 15:58:18;;;;;;;11.15;8.77;;;27.80;41.60;;;;;;4948470;28;20034;-90
2022/05/06 16:00:47;;;;;;;10.15;8.13;;;27.70;42.10;;;;;;4968079;28;20031;-90
2022/05/06 16:03:35;;;;;;;8.50;6.28;;;27.50;42.10;;;;;;4947145;28;20081;-89
2022/05/06 16:06:22;;;;;;;10.32;8.82;;;27.40;42.40;;;;;;4986743;28;20034;-90
2022/05/06 16:09:00;;;;;;;12.25;9.60;;;27.30;42.10;;;;;;4981405;28;20520;-89
2022/05/06 16:11:26;;;;;;;10.73;7.57;;;27.20;42.10;;;;;;4988789;28;20046;-88
2022/05/06 16:15:16;;;;;;;12.43;8.93;;;27.10;42.00;;;;;;4973973;28;20188;-88
2022/05/06 16:17:05;;;;;;;11.15;7.05;;;27.10;41.90;;;;;;4966900;28;20097;-89
2022/05/06 16:19:31;;;;;;;10.68;9.55;;;27.20;42.40;;;;;;4953479;28;20125;-88
2022/05/06 16:21:57;;;;;;;13.95;9.73;;;27.30;42.30;;;;;;4974157;28;20057;-89
2022/05/06 16:24:23;;;;;;;10.10;6.70;;;27.30;42.40;;;;;;4985641;28;20054;-91
2022/05/06 16:26:53;;;;;;;10.57;7.43;;;27.30;43.00;;;;;;4976019;28;20177;-89
2022/05/06 16:29:24;;;;;;;9.77;6.30;;;27.40;43.10;;;;;;4976601;28;20069;-89
2022/05/06 16:31:52;;;;;;;5.82;5.22;;;27.60;42.90;;;;;;4965916;28;20119;-90
2022/05/06 16:37:27;;;;;;;6.70;5.07;;;27.90;42.90;;;;;;4997353;28;20037;-88
2022/05/06 16:39:58;;;;;;;6.80;5.63;;;28.10;43.20;;;;;;4969106;28;20076;-88
2022/05/06 16:42:29;;;;;;;8.35;5.82;;;28.30;43.10;;;;;;4978933;28;20463;-89
2022/05/06 16:44:57;;;;;;;9.55;7.15;;;28.20;42.90;;;;;;4966516;28;20463;-89
2022/05/06 16:47:34;;;;;;;11.52;7.43;;;28.30;42.90;;;;;;4983939;28;20124;-90
2022/05/06 16:50:22;;;;;;;9.50;7.85;;;28.40;42.30;;;;;;4946000;28;20547;-90
2022/05/06 16:52:50;;;;;;;12.93;8.43;;;28.50;42.20;;;;;;4991105;28;20030;-89
2022/05/06 16:55:23;;;;;;;8.70;6.93;;;28.60;41.30;;;;;;4951756;28;20118;-90
2022/05/06 16:58:01;;;;;;;7.82;5.80;;;28.60;41.00;;;;;;4944030;28;20033;-89
2022/05/06 17:00:37;;;;;;;6.97;5.22;;;28.70;41.60;;;;;;4954535;28;20034;-90
2022/05/06 17:03:16;;;;;;;11.43;7.63;;;28.70;41.70;;;;;;4935484;28;20422;-90
2022/05/06 17:09:02;;;;;;;9.48;6.05;;;28.80;41.90;;;;;;4931576;28;20034;-91
2022/05/06 17:11:33;;;;;;;7.00;5.70;;;28.80;41.00;;;;;;4938170;28;20030;-90
2022/05/06 17:13:59;;;;;;;6.80;4.78;;;28.70;40.80;;;;;;4967438;28;20026;-90
2022/05/06 17:16:27;;;;;;;6.63;5.50;;;28.70;40.90;;;;;;4940787;28;20912;-90
2022/05/06 17:18:53;;;;;;;7.07;5.10;;;28.60;40.80;;;;;;4940545;28;20030;-90
2022/05/06 17:22:03;;;;;;;5.55;3.53;;;28.70;41.00;;;;;;4937763;28;20049;-92
2022/05/06 17:24:35;;;;;;;4.53;4.10;;;28.60;41.20;;;;;;4948635;28;20046;-91
2022/05/06 17:30:22;;;;;;;4.38;3.35;;;28.50;41.10;;;;;;4922687;28;20474;-91
2022/05/06 17:32:50;;;;;;;;;;;28.50;40.60;;;;;;4964155;28;20058;-90
2022/05/06 17:35:19;;;;;;;7.85;4.28;;;28.50;40.60;;;;;;4959135;28;19956;-91
2022/05/06 17:37:53;;;;;;;5.40;4.30;;;28.50;40.70;;;;;;4936692;28;20053;-91
2022/05/06 17:40:29;;;;;;;3.13;2.83;;;28.40;40.10;;;;;;4962387;28;20038;-91
2022/05/06 17:45:48;;;;;;;4.53;2.80;;;28.30;40.00;;;;;;4975406;28;20030;-90
2022/05/06 17:51:40;;;;;;;3.33;2.88;;;28.10;40.10;;;;;;4906869;28;20043;-91
2022/05/06 17:54:20;;;;;;;;;;;;;;;;;;;;;
2022/05/06 17:56:45;;;;;;;3.47;3.03;;;28.00;40.30;;;;;;4965509;28;20037;-90
2022/05/06 17:59:30;;;;;;;4.60;3.50;;;28.00;40.30;;;;;;4982035;28;20137;-91
2022/05/06 18:01:58;;;;;;;4.43;2.95;;;27.80;40.40;;;;;;4947088;28;20030;-92
2022/05/06 18:04:29;;;;;;;5.43;3.63;;;27.60;41.30;;;;;;4959387;28;20038;-91
2022/05/06 18:07:12;;;;;;;5.10;3.47;;;27.60;40.60;;;;;;4945515;28;20029;-90
2022/05/06 18:09:46;;;;;;;4.53;3.38;;;27.50;40.90;;;;;;4975738;28;20073;-91
2022/05/06 18:12:12;;;;;;;8.05;4.07;;;27.30;41.00;;;;;;4924848;28;20034;-89
2022/05/06 18:14:53;;;;;;;;;;;;;;;;;;;;;
2022/05/06 18:17:39;;;;;;;4.95;4.45;;;27.00;41.20;;;;;;4979987;28;20587;-91
2022/05/06 18:20:15;;;;;;;6.65;4.65;;;26.70;41.10;;;;;;4915397;28;20030;-90
2022/05/06 18:26:51;;;;;;;;;;;;;;;;;;;;;
2022/05/06 18:29:17;;;;;;;7.25;4.35;;;25.80;42.10;;;;;;4953708;28;20742;-92
2022/05/06 18:34:29;;;;;;;4.90;3.63;;;25.30;42.60;;;;;;4947485;28;20504;-91
2022/05/06 18:36:57;;;;;;;4.25;3.25;;;25.20;43.00;;;;;;4938251;28;20090;-92
2022/05/06 18:39:25;;;;;;;6.25;3.80;;;24.90;43.10;;;;;;4948366;28;20124;-91
2022/05/06 18:41:54;;;;;;;4.78;3.42;;;24.70;43.10;;;;;;4966272;28;20485;-91
2022/05/06 18:44:33;;;;;;;;;;;;;;;;;;;;;
2022/05/06 18:47:39;;;;;;;5.53;3.30;;;24.30;43.60;;;;;;4904347;28;20031;-91
2022/05/06 18:50:39;;;;;;;4.65;3.40;;;24.00;44.20;;;;;;4970145;28;20367;-92
2022/05/06 18:54:00;;;;;;;5.65;4.35;;;23.70;44.20;;;;;;4955874;28;20039;-91
2022/05/06 18:56:44;;;;;;;5.93;3.55;;;23.50;44.40;;;;;;4964558;28;20125;-91
2022/05/06 18:59:48;;;;;;;5.10;3.67;;;23.20;44.40;;;;;;4938547;28;20041;-92
2022/05/06 19:02:22;;;;;;;4.65;3.95;;;23.00;44.60;;;;;;4888042;29;20035;-92
2022/05/06 19:04:53;;;;;;;4.10;3.70;;;22.80;45.10;;;;;;4916217;28;20485;-91
2022/05/06 19:11:39;;;;;;;;;;;;;;;;;;;;;
2022/05/06 19:35:30;;;;;;;;;;;;;;;;;;;;;
2022/05/06 19:45:20;;;;;;;4.28;3.88;;;20.10;46.40;;;;;;4735910;29;20028;-90
2022/05/06 19:47:56;;;;;;;6.53;5.00;;;19.90;46.20;;;;;;4759735;29;20030;-89
2022/05/06 19:51:10;;;;;;;3.97;3.38;;;19.80;46.30;;;;;;4795633;29;20467;-89
2022/05/06 19:53:34;;;;;;;4.28;3.80;;;19.60;46.80;;;;;;4876912;29;20117;-90
2022/05/06 19:56:11;;;;;;;5.75;3.97;;;19.60;48.70;;;;;;4897051;28;20032;-89
2022/05/06 19:58:42;;;;;;;5.53;3.85;;;19.60;49.70;;;;;;4946621;28;20061;-90
2022/05/06 20:01:26;;;;;;;6.40;4.18;;;19.40;49.70;;;;;;4939579;28;20035;-90